Time;durP1;ratioP1;P1;durP2;ratioP2;P2;SDS_P1;SDS_P2;PMS_P1;PMS_P2;Temp;Humidity;BMP_temperature;BMP_pressure;BME280_temperature;BME280_humidity;BME280_pressure;Samples;Min_cycle;Max_cycle;Signal;HPM_P1;HPM_P2
2023/09/12 00:00:47;;;;;;;42.22;28.48;;;21.70;99.90;;;;;;5092799;28;20203;-73
2023/09/12 00:03:13;;;;;;;43.17;30.10;;;21.80;99.90;;;;;;5093190;28;20175;-72
2023/09/12 00:05:39;;;;;;;44.55;31.73;;;21.80;99.90;;;;;;5093123;28;20165;-72
2023/09/12 00:08:05;;;;;;;42.17;32.28;;;21.70;99.90;;;;;;5093058;28;20183;-72
2023/09/12 00:10:30;;;;;;;43.78;31.88;;;21.60;99.90;;;;;;5093137;28;20168;-72
2023/09/12 00:12:56;;;;;;;41.78;30.15;;;21.50;99.90;;;;;;5092718;28;20172;-72
2023/09/12 00:15:22;;;;;;;42.80;31.42;;;21.50;99.90;;;;;;5092919;28;20225;-72
2023/09/12 00:17:49;;;;;;;45.90;31.35;;;21.50;99.90;;;;;;5093013;28;20172;-72
2023/09/12 00:20:15;;;;;;;44.00;32.08;;;21.60;99.90;;;;;;5091503;28;20551;-73
2023/09/12 00:22:40;;;;;;;43.35;31.00;;;21.70;99.90;;;;;;5092936;28;20182;-72
2023/09/12 00:25:06;;;;;;;44.10;31.05;;;21.60;99.90;;;;;;5092972;28;20285;-72
2023/09/12 00:27:32;;;;;;;43.22;30.17;;;21.50;99.90;;;;;;5092467;28;20171;-73
2023/09/12 00:29:57;;;;;;;42.72;30.55;;;21.50;99.90;;;;;;5092766;28;20184;-73
2023/09/12 00:32:23;;;;;;;43.85;31.35;;;21.50;99.90;;;;;;5092676;28;20179;-72
2023/09/12 00:34:48;;;;;;;49.78;32.75;;;21.60;99.90;;;;;;5094705;28;20172;-72
2023/09/12 00:37:14;;;;;;;43.60;33.05;;;21.60;99.90;;;;;;5096527;28;20512;-73
2023/09/12 00:39:40;;;;;;;43.88;31.25;;;21.60;99.90;;;;;;5096418;28;20175;-73
2023/09/12 00:42:07;;;;;;;45.83;30.60;;;21.50;99.90;;;;;;5096037;28;20200;-73
2023/09/12 00:44:33;;;;;;;42.80;31.10;;;21.40;99.90;;;;;;5096150;28;20206;-73
2023/09/12 00:47:01;;;;;;;48.28;32.17;;;21.40;99.90;;;;;;5096454;28;20191;-73
2023/09/12 00:49:27;;;;;;;48.17;33.10;;;21.60;99.90;;;;;;5096432;28;20631;-73
2023/09/12 00:51:56;;;;;;;44.90;31.02;;;21.60;99.90;;;;;;5094925;28;20201;-73
2023/09/12 00:54:22;;;;;;;44.38;32.58;;;21.60;99.90;;;;;;5096314;28;20168;-72
2023/09/12 00:56:48;;;;;;;44.30;31.02;;;21.60;99.90;;;;;;5095773;28;20568;-72
2023/09/12 00:59:16;;;;;;;47.00;32.97;;;21.50;99.90;;;;;;5096106;28;20172;-72
2023/09/12 01:01:42;;;;;;;42.53;31.02;;;21.50;99.90;;;;;;5096041;28;20256;-72
2023/09/12 01:04:09;;;;;;;45.22;32.55;;;21.50;99.90;;;;;;5096233;28;20168;-72
2023/09/12 01:06:34;;;;;;;46.50;32.63;;;21.50;99.90;;;;;;5096175;28;20167;-72
2023/09/12 01:09:00;;;;;;;44.45;31.95;;;21.60;99.90;;;;;;5095922;28;20168;-73
2023/09/12 01:11:27;;;;;;;42.35;31.73;;;21.60;99.90;;;;;;5095543;28;20715;-73
2023/09/12 01:13:53;;;;;;;48.70;32.90;;;21.60;99.90;;;;;;5095992;28;20225;-72
2023/09/12 01:16:18;;;;;;;47.25;33.05;;;21.60;99.90;;;;;;5095799;28;20535;-72
2023/09/12 01:18:45;;;;;;;45.05;32.55;;;21.60;99.90;;;;;;5095474;28;20215;-72
2023/09/12 01:21:29;;;;;;;48.63;32.45;;;21.50;99.90;;;;;;5095571;28;20704;-72
2023/09/12 01:24:11;;;;;;;37.30;28.10;;;21.50;99.90;;;;;;5094638;28;20198;-72
2023/09/12 01:26:59;;;;;;;38.00;27.30;;;21.50;99.90;;;;;;5095372;28;20180;-72
2023/09/12 01:29:26;;;;;;;37.20;26.85;;;21.30;99.90;;;;;;5094263;28;20611;-72
2023/09/12 01:31:53;;;;;;;35.95;27.23;;;21.30;99.90;;;;;;5095466;28;20284;-72
2023/09/12 01:34:19;;;;;;;35.75;26.55;;;21.10;99.90;;;;;;5095419;28;20168;-72
2023/09/12 01:36:44;;;;;;;38.47;28.02;;;21.10;99.90;;;;;;5094285;28;20168;-72
2023/09/12 01:39:10;;;;;;;38.25;27.67;;;21.10;99.90;;;;;;5095578;28;20251;-73
2023/09/12 01:41:40;;;;;;;36.83;26.98;;;21.00;99.90;;;;;;5094850;28;20203;-71
2023/09/12 01:44:08;;;;;;;41.83;28.65;;;21.00;99.90;;;;;;5095421;28;20156;-72
2023/09/12 01:46:36;;;;;;;39.97;28.92;;;21.00;99.90;;;;;;5094708;28;20242;-72
2023/09/12 01:49:04;;;;;;;42.50;31.63;;;20.90;99.90;;;;;;5095141;28;20243;-72
2023/09/12 01:51:30;;;;;;;40.60;31.33;;;20.90;99.90;;;;;;5095205;28;20528;-72
2023/09/12 01:53:56;;;;;;;44.17;33.00;;;21.00;99.90;;;;;;5094800;28;20196;-72
2023/09/12 01:56:23;;;;;;;47.20;33.65;;;21.00;99.90;;;;;;5095075;28;20171;-72
2023/09/12 01:58:48;;;;;;;52.30;35.78;;;20.90;99.90;;;;;;5095010;28;20195;-72
2023/09/12 02:01:14;;;;;;;48.08;34.30;;;20.90;99.90;;;;;;5094883;28;20231;-72
2023/09/12 02:03:40;;;;;;;55.60;35.53;;;20.90;99.90;;;;;;5094792;28;20725;-72
2023/09/12 02:06:05;;;;;;;49.85;34.63;;;20.90;99.90;;;;;;5094795;28;20168;-72
2023/09/12 02:08:31;;;;;;;52.95;36.03;;;20.80;99.90;;;;;;5094513;28;20716;-72
2023/09/12 02:10:56;;;;;;;50.75;35.10;;;20.80;99.90;;;;;;5093543;28;20174;-72
2023/09/12 02:13:22;;;;;;;49.63;34.72;;;20.80;99.90;;;;;;5094776;28;20172;-72
2023/09/12 02:15:48;;;;;;;54.00;34.22;;;20.80;99.90;;;;;;5093505;28;20196;-71
2023/09/12 02:18:13;;;;;;;47.60;33.55;;;20.70;99.90;;;;;;5094298;28;20164;-72
2023/09/12 02:20:41;;;;;;;49.75;33.35;;;20.70;99.90;;;;;;5094472;28;20693;-72
2023/09/12 02:23:07;;;;;;;46.08;33.47;;;20.60;99.90;;;;;;5094272;28;20628;-72
2023/09/12 02:25:32;;;;;;;43.22;32.08;;;20.70;99.90;;;;;;5094630;28;20221;-72
2023/09/12 02:27:58;;;;;;;47.40;30.88;;;20.70;99.90;;;;;;5094523;28;20160;-72
2023/09/12 02:30:23;;;;;;;47.55;33.45;;;20.80;99.90;;;;;;5094425;28;20194;-72
2023/09/12 02:32:49;;;;;;;44.53;31.33;;;20.90;99.90;;;;;;5094155;28;20224;-72
2023/09/12 02:35:15;;;;;;;42.85;30.58;;;21.00;99.90;;;;;;5093173;28;20616;-72
2023/09/12 02:37:40;;;;;;;45.50;31.08;;;20.90;99.90;;;;;;5092656;28;20179;-72
2023/09/12 02:40:06;;;;;;;47.20;32.28;;;20.90;99.90;;;;;;5094067;28;20171;-73
2023/09/12 02:42:32;;;;;;;44.83;31.33;;;20.90;99.90;;;;;;5093950;28;20187;-73
2023/09/12 02:44:58;;;;;;;45.58;31.55;;;21.00;99.90;;;;;;5092849;28;20632;-73
2023/09/12 02:47:23;;;;;;;42.63;31.55;;;21.00;99.90;;;;;;5093998;28;20254;-72
2023/09/12 02:49:49;;;;;;;44.45;31.20;;;20.90;99.90;;;;;;5093910;28;20243;-73
2023/09/12 02:52:15;;;;;;;42.97;31.02;;;20.90;99.90;;;;;;5093723;28;20255;-73
2023/09/12 02:54:40;;;;;;;44.10;30.38;;;20.90;99.90;;;;;;5093966;28;20676;-73
2023/09/12 02:57:06;;;;;;;47.67;32.58;;;20.90;99.90;;;;;;5092039;28;20175;-73
2023/09/12 02:59:31;;;;;;;43.70;31.42;;;20.80;99.90;;;;;;5093319;28;20164;-73
2023/09/12 03:01:57;;;;;;;41.70;30.90;;;20.80;99.90;;;;;;5093423;28;20552;-73
2023/09/12 03:04:27;;;;;;;46.35;31.73;;;20.80;99.90;;;;;;5093861;28;20174;-73
2023/09/12 03:06:53;;;;;;;41.63;29.73;;;20.90;99.90;;;;;;5092140;28;20295;-73
2023/09/12 03:09:19;;;;;;;39.72;29.05;;;21.00;99.90;;;;;;5093661;28;20578;-72
2023/09/12 03:11:45;;;;;;;37.35;27.20;;;21.00;99.90;;;;;;5093678;28;20568;-73
2023/09/12 03:14:10;;;;;;;39.83;28.10;;;21.00;99.90;;;;;;5093520;28;20175;-73
2023/09/12 03:16:37;;;;;;;35.55;26.13;;;20.90;99.90;;;;;;5093407;28;20175;-73
2023/09/12 03:19:03;;;;;;;35.58;25.83;;;21.00;99.90;;;;;;5093228;28;20226;-73
2023/09/12 03:21:29;;;;;;;36.72;26.08;;;21.10;99.90;;;;;;5092903;28;20199;-72
2023/09/12 03:23:54;;;;;;;36.60;26.80;;;21.10;99.90;;;;;;5092286;28;20263;-71
2023/09/12 03:26:20;;;;;;;36.70;26.17;;;21.20;99.90;;;;;;5093559;28;20251;-73
2023/09/12 03:28:48;;;;;;;38.85;26.50;;;21.20;99.90;;;;;;5093430;28;20168;-73
2023/09/12 03:31:14;;;;;;;33.72;24.10;;;21.20;99.90;;;;;;5093073;28;20196;-73
2023/09/12 03:33:41;;;;;;;34.35;24.52;;;21.10;99.90;;;;;;5092968;28;20175;-72
2023/09/12 03:36:07;;;;;;;32.60;23.65;;;21.00;99.90;;;;;;5093019;28;20174;-72
2023/09/12 03:38:34;;;;;;;34.10;24.48;;;21.00;99.90;;;;;;5093412;28;20199;-73
2023/09/12 03:41:00;;;;;;;32.15;23.48;;;21.10;99.90;;;;;;5092807;28;20260;-72
2023/09/12 03:43:26;;;;;;;29.45;21.63;;;21.20;99.90;;;;;;5093078;28;20646;-72
2023/09/12 03:45:52;;;;;;;28.02;21.10;;;21.20;99.90;;;;;;5093301;28;20175;-72
2023/09/12 03:48:17;;;;;;;29.00;22.05;;;21.20;99.90;;;;;;5093149;28;20164;-73
2023/09/12 03:50:44;;;;;;;27.95;21.25;;;21.20;99.90;;;;;;5091212;28;20167;-72
2023/09/12 03:53:10;;;;;;;27.52;20.92;;;21.20;99.90;;;;;;5092848;28;20352;-72
2023/09/12 03:55:36;;;;;;;27.38;19.38;;;21.30;99.90;;;;;;5092911;28;20164;-73
2023/09/12 03:58:02;;;;;;;27.23;19.15;;;21.10;99.90;;;;;;5092541;28;20172;-72
2023/09/12 04:00:27;;;;;;;23.45;18.65;;;21.10;99.90;;;;;;5092878;28;20663;-73
2023/09/12 04:02:53;;;;;;;23.02;17.40;;;21.10;99.90;;;;;;5092958;28;20179;-73
2023/09/12 04:05:19;;;;;;;23.77;18.48;;;21.20;99.90;;;;;;5092399;28;20164;-73
2023/09/12 04:07:44;;;;;;;24.25;17.83;;;21.20;99.90;;;;;;5092704;28;20183;-72
2023/09/12 04:10:10;;;;;;;26.27;19.27;;;21.10;99.90;;;;;;5095021;28;20255;-73
2023/09/12 04:12:35;;;;;;;28.30;21.02;;;21.10;99.90;;;;;;5096334;28;20164;-72
2023/09/12 04:15:01;;;;;;;26.85;19.65;;;21.20;99.90;;;;;;5096528;28;20156;-72
2023/09/12 04:17:26;;;;;;;29.05;21.60;;;21.30;99.90;;;;;;5096707;28;20186;-73
2023/09/12 04:19:52;;;;;;;26.20;18.05;;;21.20;99.90;;;;;;5096158;28;20211;-73
2023/09/12 04:22:18;;;;;;;30.10;20.52;;;21.20;99.90;;;;;;5096200;28;20253;-73
2023/09/12 04:24:43;;;;;;;27.30;19.58;;;21.10;99.90;;;;;;5096574;28;20172;-73
2023/09/12 04:27:09;;;;;;;30.20;20.17;;;21.10;99.90;;;;;;5096022;28;20168;-72
2023/09/12 04:29:35;;;;;;;28.45;19.30;;;21.00;99.90;;;;;;5096748;28;20188;-72
2023/09/12 04:32:03;;;;;;;29.88;19.60;;;21.00;99.90;;;;;;5096320;28;20673;-73
2023/09/12 04:34:29;;;;;;;30.85;21.10;;;21.00;99.90;;;;;;5095994;28;20242;-73
2023/09/12 04:36:55;;;;;;;26.48;19.25;;;20.90;99.90;;;;;;5094794;28;20172;-71
2023/09/12 04:39:20;;;;;;;27.67;20.52;;;21.00;99.90;;;;;;5095085;28;20171;-71
2023/09/12 04:41:46;;;;;;;31.08;22.90;;;21.10;99.90;;;;;;5096060;28;20561;-72
2023/09/12 04:44:12;;;;;;;32.22;21.85;;;21.10;99.90;;;;;;5094510;28;20275;-73
2023/09/12 04:46:38;;;;;;;29.65;21.90;;;21.10;99.90;;;;;;5095915;28;20160;-72
2023/09/12 04:49:03;;;;;;;33.10;22.25;;;21.10;99.90;;;;;;5094804;28;20583;-73
2023/09/12 04:51:29;;;;;;;33.42;21.90;;;21.20;99.90;;;;;;5095723;28;20172;-72
2023/09/12 04:53:55;;;;;;;32.83;23.02;;;21.10;99.90;;;;;;5095443;28;20251;-72
2023/09/12 04:56:24;;;;;;;32.67;23.02;;;21.10;99.90;;;;;;5095998;28;20172;-72
2023/09/12 04:58:49;;;;;;;31.13;21.48;;;21.20;99.90;;;;;;5096030;28;20171;-72
2023/09/12 05:01:16;;;;;;;32.55;23.23;;;21.10;99.90;;;;;;5095534;28;20200;-73
2023/09/12 05:03:41;;;;;;;31.08;22.35;;;21.00;99.90;;;;;;5095089;28;20175;-74
2023/09/12 05:06:07;;;;;;;34.45;23.88;;;20.90;99.90;;;;;;5095234;28;20554;-72
2023/09/12 05:08:33;;;;;;;31.58;23.08;;;20.90;99.90;;;;;;5095571;28;20164;-72
2023/09/12 05:10:58;;;;;;;38.20;23.35;;;21.00;99.90;;;;;;5094466;28;20168;-72
2023/09/12 05:13:24;;;;;;;36.45;23.67;;;21.10;99.90;;;;;;5095141;28;20183;-72
2023/09/12 05:15:50;;;;;;;31.10;22.40;;;21.00;99.90;;;;;;5095485;28;20270;-72
2023/09/12 05:18:15;;;;;;;31.17;23.25;;;21.00;99.90;;;;;;5093056;28;20200;-74
2023/09/12 05:20:41;;;;;;;33.08;23.63;;;21.00;99.90;;;;;;5094058;28;20210;-74
2023/09/12 05:23:06;;;;;;;34.63;23.50;;;20.90;99.90;;;;;;5093427;28;20537;-72
2023/09/12 05:25:32;;;;;;;32.47;22.80;;;20.90;99.90;;;;;;5094941;28;20166;-73
2023/09/12 05:27:58;;;;;;;37.50;24.70;;;20.90;99.90;;;;;;5093444;28;20225;-72
2023/09/12 05:30:23;;;;;;;38.45;24.52;;;20.80;99.90;;;;;;5095132;28;20252;-72
2023/09/12 05:32:49;;;;;;;32.35;23.38;;;20.70;99.90;;;;;;5092871;28;20640;-72
2023/09/12 05:35:14;;;;;;;37.85;24.35;;;20.70;99.90;;;;;;5094030;28;20163;-73
2023/09/12 05:37:40;;;;;;;35.03;23.98;;;20.70;99.90;;;;;;5094575;28;20208;-74
2023/09/12 05:40:06;;;;;;;35.45;23.67;;;20.80;99.90;;;;;;5095006;28;20192;-73
2023/09/12 05:42:32;;;;;;;35.35;24.45;;;20.70;99.90;;;;;;5092911;28;20219;-73
2023/09/12 05:44:57;;;;;;;32.47;23.42;;;20.80;99.90;;;;;;5094414;28;20658;-73
2023/09/12 05:47:23;;;;;;;35.00;23.45;;;20.90;99.90;;;;;;5094120;28;20171;-73
2023/09/12 05:49:50;;;;;;;31.88;23.45;;;20.80;99.90;;;;;;5094228;28;20164;-73
2023/09/12 05:52:16;;;;;;;31.48;22.55;;;20.80;99.90;;;;;;5093997;28;20209;-74
2023/09/12 05:54:42;;;;;;;34.03;22.38;;;20.90;99.90;;;;;;5094197;28;20168;-73
2023/09/12 05:57:10;;;;;;;33.10;22.27;;;20.90;99.90;;;;;;5093861;28;20164;-73
2023/09/12 05:59:37;;;;;;;29.35;21.60;;;21.10;99.90;;;;;;5094202;28;20168;-74
2023/09/12 06:02:04;;;;;;;26.42;21.20;;;21.50;99.90;;;;;;5092903;28;20211;-75
2023/09/12 06:04:30;;;;;;;27.92;21.67;;;21.90;99.90;;;;;;5093411;28;20239;-74
2023/09/12 06:06:56;;;;;;;29.50;21.13;;;22.30;99.90;;;;;;5093537;28;20172;-74
2023/09/12 06:09:21;;;;;;;33.10;21.88;;;22.80;99.90;;;;;;5093688;28;20174;-74
2023/09/12 06:11:47;;;;;;;27.92;20.10;;;23.40;90.20;;;;;;5093796;28;20576;-75
2023/09/12 06:14:12;;;;;;;27.92;21.35;;;23.90;60.60;;;;;;5093344;28;20171;-75
2023/09/12 06:16:38;;;;;;;25.58;19.70;;;24.60;38.00;;;;;;5093163;28;20198;-75
2023/09/12 06:19:03;;;;;;;34.38;21.95;;;25.20;15.60;;;;;;5092381;28;20269;-75
2023/09/12 06:21:29;;;;;;;27.17;21.77;;;25.80;1.00;;;;;;5093541;28;20645;-77
2023/09/12 06:24:15;;;;;;;27.25;20.98;;;26.50;1.00;;;;;;5092974;28;20164;-76
2023/09/12 06:26:42;;;;;;;25.40;19.33;;;27.20;1.00;;;;;;5094303;28;20164;-76
2023/09/12 06:29:08;;;;;;;24.80;20.05;;;27.30;1.00;;;;;;5091890;28;20175;-77
2023/09/12 06:31:34;;;;;;;28.98;21.42;;;27.30;1.00;;;;;;5092991;28;20195;-76
2023/09/12 06:33:59;;;;;;;25.27;19.48;;;27.10;1.00;;;;;;5093050;28;20175;-75
2023/09/12 06:36:25;;;;;;;23.08;19.25;;;26.80;1.00;;;;;;5093070;28;20164;-75
2023/09/12 06:38:51;;;;;;;22.75;18.98;;;26.50;1.00;;;;;;5093204;28;20176;-76
2023/09/12 06:41:20;;;;;;;25.83;20.52;;;25.90;1.00;;;;;;5087426;28;20256;-75
2023/09/12 06:43:46;;;;;;;25.52;20.92;;;25.60;1.00;;;;;;5081565;28;20263;-73
2023/09/12 06:46:11;;;;;;;25.63;20.63;;;25.40;1.00;;;;;;5072184;28;20256;-75
2023/09/12 06:48:37;;;;;;;27.90;21.48;;;25.10;1.00;;;;;;5072493;28;20252;-74
2023/09/12 06:51:08;;;;;;;32.38;23.27;;;24.70;2.50;;;;;;5077435;28;20179;-74
2023/09/12 06:53:34;;;;;;;30.48;22.10;;;24.50;10.80;;;;;;5080373;28;20642;-77
2023/09/12 06:55:59;;;;;;;31.60;21.75;;;24.30;15.90;;;;;;5072373;28;20181;-79
2023/09/12 06:58:25;;;;;;;33.50;21.70;;;24.40;16.20;;;;;;5080807;28;20330;-79
2023/09/12 07:00:51;;;;;;;35.33;21.60;;;24.30;17.60;;;;;;5085676;28;20289;-82
2023/09/12 07:03:17;;;;;;;39.20;22.75;;;24.30;18.60;;;;;;5092510;28;20191;-83
2023/09/12 07:05:43;;;;;;;33.58;20.98;;;24.30;18.30;;;;;;5092408;28;20266;-84
2023/09/12 07:08:10;;;;;;;33.33;21.80;;;24.40;15.90;;;;;;5091301;28;20194;-84
2023/09/12 07:10:36;;;;;;;27.23;19.83;;;23.80;15.40;;;;;;5076129;28;20182;-84
2023/09/12 07:13:02;;;;;;;25.02;20.02;;;23.70;25.40;;;;;;5083721;28;20271;-87
2023/09/12 07:15:28;;;;;;;25.35;19.42;;;23.70;22.80;;;;;;5088892;28;20176;-90
2023/09/12 07:17:53;;;;;;;27.60;19.83;;;23.40;33.40;;;;;;5078297;28;20337;-79
2023/09/12 07:20:20;;;;;;;24.95;21.17;;;23.30;33.70;;;;;;5071946;28;20216;-86
2023/09/12 07:22:46;;;;;;;29.05;20.75;;;23.00;44.40;;;;;;5072462;28;20175;-88
2023/09/12 07:25:14;;;;;;;25.42;21.30;;;22.80;52.60;;;;;;5080037;28;20574;-88
2023/09/12 07:27:40;;;;;;;28.23;22.20;;;22.70;61.30;;;;;;5091479;28;20365;-81
2023/09/12 07:30:08;;;;;;;29.50;20.15;;;22.70;65.20;;;;;;5080555;28;20196;-86
2023/09/12 07:32:34;;;;;;;26.00;20.38;;;22.90;62.60;;;;;;5082355;28;20183;-85
2023/09/12 07:34:59;;;;;;;26.45;19.58;;;23.40;49.90;;;;;;5084606;28;20721;-89
2023/09/12 07:37:25;;;;;;;23.13;20.17;;;24.20;28.40;;;;;;5092857;28;20184;-80
2023/09/12 07:39:50;;;;;;;24.75;19.08;;;24.90;5.50;;;;;;5080117;28;20180;-81
2023/09/12 07:42:16;;;;;;;26.08;18.48;;;25.20;1.00;;;;;;5076317;28;20281;-80
2023/09/12 07:44:42;;;;;;;28.13;19.58;;;25.40;1.00;;;;;;5069527;28;20276;-77
2023/09/12 07:47:07;;;;;;;21.50;18.08;;;25.70;1.00;;;;;;5070123;28;20181;-77
2023/09/12 07:49:33;;;;;;;23.23;18.27;;;26.20;1.00;;;;;;5069586;28;20172;-78
2023/09/12 07:51:59;;;;;;;25.30;18.67;;;26.50;1.00;;;;;;5071090;28;20184;-77
2023/09/12 07:54:24;;;;;;;24.63;19.73;;;26.80;1.00;;;;;;5070636;28;20168;-77
2023/09/12 07:56:50;;;;;;;24.70;18.13;;;26.80;1.00;;;;;;5071841;28;20491;-77
2023/09/12 07:59:16;;;;;;;24.15;19.38;;;27.00;1.00;;;;;;5071795;28;20173;-77
2023/09/12 08:01:42;;;;;;;23.35;18.48;;;27.30;1.00;;;;;;5085733;28;20685;-77
2023/09/12 08:04:07;;;;;;;21.88;17.13;;;26.60;1.00;;;;;;5091851;28;20172;-78
2023/09/12 08:06:33;;;;;;;20.42;16.55;;;26.40;1.00;;;;;;5092439;28;20222;-77
2023/09/12 08:08:58;;;;;;;19.20;16.08;;;26.50;1.00;;;;;;5088554;28;20172;-84
2023/09/12 08:11:24;;;;;;;20.58;16.98;;;27.40;1.00;;;;;;5072893;28;20267;-77
2023/09/12 08:13:50;;;;;;;19.73;15.20;;;28.60;1.00;;;;;;5069456;28;20508;-77
2023/09/12 08:16:16;;;;;;;18.27;13.77;;;30.00;99.90;;;;;;5079556;28;20646;-80
2023/09/12 08:18:41;;;;;;;17.67;13.15;;;30.90;53.00;;;;;;5076482;28;20299;-83
2023/09/12 08:21:07;;;;;;;15.98;13.43;;;31.50;1.00;;;;;;5073179;28;20625;-79
2023/09/12 08:23:33;;;;;;;14.00;12.52;;;31.90;1.00;;;;;;5080601;28;20181;-80
2023/09/12 08:25:59;;;;;;;12.48;11.18;;;32.50;1.00;;;;;;5071036;28;20176;-79
2023/09/12 08:28:24;;;;;;;15.05;11.65;;;33.80;99.90;;;;;;5082976;28;20640;-77
2023/09/12 08:30:50;;;;;;;13.38;12.02;;;34.50;1.00;;;;;;5085318;28;20326;-79
2023/09/12 08:33:16;;;;;;;13.48;11.70;;;34.60;1.00;;;;;;5085679;28;20181;-79
2023/09/12 08:35:41;;;;;;;15.02;13.27;;;34.70;1.00;;;;;;5078344;28;20623;-89
2023/09/12 08:38:08;;;;;;;15.25;12.40;;;35.40;1.00;;;;;;5082963;28;20178;-78
2023/09/12 08:40:35;;;;;;;18.63;15.43;;;35.90;99.90;;;;;;5074727;28;20215;-82
2023/09/12 08:43:03;;;;;;;21.60;16.63;;;35.60;99.90;;;;;;5074601;28;20185;-84
2023/09/12 08:45:29;;;;;;;20.30;16.35;;;35.40;1.00;;;;;;5075478;28;20183;-78
2023/09/12 08:47:56;;;;;;;20.30;15.32;;;35.30;1.00;;;;;;5077864;28;20620;-84
2023/09/12 08:50:25;;;;;;;20.42;16.38;;;34.80;1.00;;;;;;5080674;28;20223;-79
2023/09/12 08:52:50;;;;;;;24.33;19.38;;;35.20;1.00;;;;;;5075397;28;20541;-83
2023/09/12 08:55:16;;;;;;;22.95;18.33;;;35.10;1.00;;;;;;5081923;28;20179;-79
2023/09/12 08:57:44;;;;;;;23.90;19.77;;;35.40;1.00;;;;;;5089033;28;20671;-79
2023/09/12 09:00:12;;;;;;;19.98;17.23;;;36.10;1.00;;;;;;5093032;28;20183;-87
2023/09/12 09:02:42;;;;;;;19.60;16.75;;;36.00;1.00;;;;;;5098949;28;20290;-80
2023/09/12 09:05:09;;;;;;;18.13;15.35;;;34.70;1.00;;;;;;5090274;28;20244;-86
2023/09/12 09:07:39;;;;;;;18.83;15.88;;;35.00;1.00;;;;;;5093229;28;20332;-83
2023/09/12 09:10:08;;;;;;;21.60;15.18;;;35.00;1.00;;;;;;5092145;28;20176;-86
2023/09/12 09:12:34;;;;;;;16.98;13.93;;;33.90;1.00;;;;;;5077889;28;20169;-84
2023/09/12 09:15:27;;;;;;;17.08;13.65;;;33.30;99.90;;;;;;5097689;28;20399;-91
2023/09/12 09:17:53;;;;;;;17.35;14.50;;;33.70;99.90;;;;;;5088063;28;20167;-89
2023/09/12 09:20:37;;;;;;;19.15;14.27;;;34.20;79.60;;;;;;5092969;28;20234;-87
2023/09/12 09:23:05;;;;;;;17.23;12.73;;;35.10;1.00;;;;;;5085058;28;20523;-84
2023/09/12 09:25:34;;;;;;;13.45;12.07;;;35.90;1.00;;;;;;5086204;28;20172;-80
2023/09/12 09:28:16;;;;;;;15.30;12.07;;;36.40;99.90;;;;;;5080374;28;20271;-86
2023/09/12 09:30:44;;;;;;;16.58;14.38;;;36.50;99.90;;;;;;5084543;28;20179;-81
2023/09/12 09:33:11;;;;;;;16.67;14.57;;;36.80;99.90;;;;;;5089898;28;20175;-85
2023/09/12 09:35:37;;;;;;;15.82;13.85;;;35.70;99.90;;;;;;5077637;28;20180;-84
2023/09/12 09:38:05;;;;;;;19.08;14.38;;;36.30;99.90;;;;;;5084202;28;20513;-85
2023/09/12 09:40:31;;;;;;;18.90;15.15;;;36.30;99.90;;;;;;5080370;28;20234;-84
2023/09/12 09:43:00;;;;;;;18.40;15.85;;;36.00;99.90;;;;;;5086350;28;20174;-83
2023/09/12 09:45:27;;;;;;;18.38;14.60;;;36.10;99.90;;;;;;5097534;28;20247;-80
2023/09/12 09:47:58;;;;;;;16.65;14.98;;;35.90;99.90;;;;;;5083816;28;20190;-83
2023/09/12 09:50:24;;;;;;;20.30;15.95;;;35.40;1.00;;;;;;5081207;28;20271;-85
2023/09/12 09:52:57;;;;;;;16.92;14.88;;;34.90;1.00;;;;;;5084153;28;20200;-88
2023/09/12 09:55:23;;;;;;;18.98;16.40;;;34.60;1.00;;;;;;5088199;28;20177;-82
2023/09/12 09:57:51;;;;;;;20.45;15.73;;;33.80;99.90;;;;;;5086945;28;20165;-92
2023/09/12 10:00:19;;;;;;;16.70;14.90;;;32.80;1.00;;;;;;5074901;28;20374;-81
2023/09/12 10:02:46;;;;;;;15.80;14.15;;;33.20;1.00;;;;;;5086952;28;20237;-84
2023/09/12 10:05:14;;;;;;;14.80;12.95;;;34.00;99.90;;;;;;5080133;28;20196;-85
2023/09/12 10:07:41;;;;;;;13.07;11.77;;;34.10;21.20;;;;;;5076517;28;20275;-82
2023/09/12 10:10:08;;;;;;;11.93;10.73;;;34.60;1.00;;;;;;5077569;28;20188;-87
2023/09/12 10:12:38;;;;;;;11.57;10.38;;;35.10;1.00;;;;;;5081818;28;20206;-84
2023/09/12 10:15:05;;;;;;;10.27;9.27;;;35.00;1.00;;;;;;5082768;28;20187;-86
2023/09/12 10:17:39;;;;;;;10.95;9.75;;;35.10;1.00;;;;;;5093845;28;20167;-88
2023/09/12 10:20:12;;;;;;;10.45;9.45;;;34.40;1.00;;;;;;5100018;28;20216;-80
2023/09/12 10:22:43;;;;;;;11.85;10.68;;;33.20;1.00;;;;;;5088958;28;20250;-85
2023/09/12 10:25:11;;;;;;;13.05;10.85;;;32.30;1.00;;;;;;5088574;28;20176;-78
2023/09/12 10:27:37;;;;;;;13.15;10.68;;;31.30;55.40;;;;;;5080653;28;20177;-79
2023/09/12 10:30:04;;;;;;;13.52;12.18;;;30.90;98.60;;;;;;5079752;28;20240;-83
2023/09/12 10:32:32;;;;;;;11.57;9.60;;;30.30;99.90;;;;;;5092248;28;20168;-75
2023/09/12 10:34:59;;;;;;;11.30;10.10;;;30.10;1.00;;;;;;5113812;28;20175;-83
2023/09/12 10:37:26;;;;;;;10.25;8.45;;;29.80;99.90;;;;;;5081154;28;20169;-85
2023/09/12 10:39:53;;;;;;;10.48;8.70;;;29.90;1.00;;;;;;5097224;28;20160;-85
2023/09/12 10:42:20;;;;;;;11.85;7.60;;;29.50;99.90;;;;;;5077947;28;20724;-85
2023/09/12 10:44:46;;;;;;;9.48;8.48;;;29.50;99.90;;;;;;5092329;28;20180;-84
2023/09/12 10:47:13;;;;;;;8.07;7.38;;;29.90;99.90;;;;;;5082411;28;20189;-80
2023/09/12 10:49:39;;;;;;;9.65;7.35;;;29.90;1.00;;;;;;5089299;28;20186;-85
2023/09/12 10:52:05;;;;;;;7.38;6.68;;;30.00;99.90;;;;;;5092619;28;20627;-84
2023/09/12 10:54:40;;;;;;;7.38;5.78;;;30.40;1.00;;;;;;5083042;28;20222;-86
2023/09/12 10:57:07;;;;;;;9.35;6.70;;;31.40;99.90;;;;;;5091317;28;20179;-84
2023/09/12 10:59:36;;;;;;;8.75;6.90;;;32.10;99.90;;;;;;5107826;28;20266;-83
2023/09/12 11:02:30;;;;;;;7.90;7.07;;;32.40;1.00;;;;;;5095282;28;20220;-80
2023/09/12 11:05:00;;;;;;;7.45;6.72;;;32.30;1.00;;;;;;5092827;28;20200;-84
2023/09/12 11:07:44;;;;;;;8.60;7.70;;;32.40;99.90;;;;;;5093003;28;20696;-81
2023/09/12 11:10:16;;;;;;;9.32;7.95;;;32.10;1.00;;;;;;5092869;28;20168;-81
2023/09/12 11:12:43;;;;;;;7.70;7.07;;;31.60;99.90;;;;;;5082113;28;20179;-87
2023/09/12 11:15:12;;;;;;;8.20;6.20;;;32.00;1.00;;;;;;5081501;28;20188;-83
2023/09/12 11:17:42;;;;;;;6.82;6.22;;;32.50;99.90;;;;;;5092974;28;20518;-79
2023/09/12 11:20:12;;;;;;;6.95;6.25;;;32.50;36.10;;;;;;5091182;28;20222;-84
2023/09/12 11:22:39;;;;;;;7.47;5.60;;;32.90;1.00;;;;;;5092868;28;20206;-81
2023/09/12 11:25:15;;;;;;;7.88;7.15;;;33.60;99.90;;;;;;5087049;28;20639;-80
2023/09/12 11:27:46;;;;;;;8.60;6.60;;;34.20;99.90;;;;;;5076454;28;20677;-78
2023/09/12 11:30:12;;;;;;;7.57;6.32;;;34.30;56.10;;;;;;5074100;28;20278;-77
2023/09/12 11:32:38;;;;;;;6.45;5.85;;;34.00;1.00;;;;;;5072648;28;20188;-79
2023/09/12 11:35:07;;;;;;;6.97;6.25;;;33.40;8.40;;;;;;5078433;28;20176;-82
2023/09/12 11:37:36;;;;;;;7.40;6.47;;;32.10;9.00;;;;;;5078304;28;20180;-80
2023/09/12 11:40:11;;;;;;;11.32;6.72;;;30.80;99.90;;;;;;5076950;28;20224;-86
2023/09/12 11:42:41;;;;;;;8.18;5.97;;;30.30;99.90;;;;;;5088994;28;20195;-84
2023/09/12 11:45:11;;;;;;;7.25;6.22;;;30.90;1.00;;;;;;5086400;28;20179;-88
2023/09/12 11:47:43;;;;;;;6.90;4.82;;;31.30;99.90;;;;;;5078804;28;20267;-87
2023/09/12 11:50:32;;;;;;;6.18;5.70;;;32.00;1.00;;;;;;5075330;28;20200;-84
2023/09/12 11:53:09;;;;;;;5.75;5.20;;;33.30;99.90;;;;;;5078443;28;20190;-81
2023/09/12 11:55:47;;;;;;;8.23;5.40;;;33.00;99.90;;;;;;5084534;28;20679;-87
2023/09/12 11:58:16;;;;;;;6.57;5.97;;;33.00;1.00;;;;;;5080214;28;20171;-81
2023/09/12 12:00:53;;;;;;;6.93;6.40;;;32.20;1.00;;;;;;5081786;28;20297;-82
2023/09/12 12:03:21;;;;;;;6.43;5.82;;;31.30;99.90;;;;;;5075077;28;20168;-83
2023/09/12 12:05:47;;;;;;;9.07;5.63;;;30.90;1.00;;;;;;5076138;28;20711;-84
2023/09/12 12:08:14;;;;;;;6.28;5.45;;;30.30;99.90;;;;;;5070722;28;20173;-84
2023/09/12 12:10:40;;;;;;;8.07;5.88;;;30.70;99.90;;;;;;5070857;28;20256;-79
2023/09/12 12:13:10;;;;;;;8.60;6.40;;;31.30;1.00;;;;;;5072022;28;20279;-84
2023/09/12 12:15:36;;;;;;;8.40;6.47;;;31.60;1.00;;;;;;5091050;28;20222;-78
2023/09/12 12:18:02;;;;;;;7.47;6.10;;;31.30;11.30;;;;;;5089269;28;20180;-77
2023/09/12 12:20:29;;;;;;;9.48;5.95;;;30.90;1.00;;;;;;5072181;28;20319;-76
2023/09/12 12:22:56;;;;;;;8.65;5.68;;;30.80;1.00;;;;;;5071553;28;20181;-82
2023/09/12 12:25:22;;;;;;;6.43;5.85;;;30.30;1.00;;;;;;5072345;28;20181;-85
2023/09/12 12:27:48;;;;;;;7.53;5.30;;;30.10;1.00;;;;;;5072377;28;20260;-78
2023/09/12 12:30:14;;;;;;;9.98;6.30;;;29.80;99.90;;;;;;5072496;28;20256;-79
2023/09/12 12:32:49;;;;;;;5.78;5.25;;;30.00;1.00;;;;;;5084318;28;20188;-82